sensor_id;sensor_type;location;lat;lon;timestamp;temperature;humidity
69261;DHT22;56378;52.404;20.816;2023-03-23T00:01:16;7.90;99.10
69261;DHT22;56378;52.404;20.816;2023-03-23T00:03:49;7.90;99.50
69261;DHT22;56378;52.404;20.816;2023-03-23T00:06:16;7.90;99.50
69261;DHT22;56378;52.404;20.816;2023-03-23T00:08:45;7.90;99.40
69261;DHT22;56378;52.404;20.816;2023-03-23T00:11:16;7.90;99.40
69261;DHT22;56378;52.404;20.816;2023-03-23T00:13:45;7.90;99.30
69261;DHT22;56378;52.404;20.816;2023-03-23T00:16:12;7.90;99.30
69261;DHT22;56378;52.404;20.816;2023-03-23T00:18:48;7.90;99.40
69261;DHT22;56378;52.404;20.816;2023-03-23T00:21:21;7.90;99.30
69261;DHT22;56378;52.404;20.816;2023-03-23T00:23:59;7.90;99.10
69261;DHT22;56378;52.404;20.816;2023-03-23T00:26:25;7.80;98.60
69261;DHT22;56378;52.404;20.816;2023-03-23T00:28:54;7.90;98.10
69261;DHT22;56378;52.404;20.816;2023-03-23T00:31:19;7.80;98.20
69261;DHT22;56378;52.404;20.816;2023-03-23T00:33:45;7.80;99.10
69261;DHT22;56378;52.404;20.816;2023-03-23T00:36:12;7.80;99.30
69261;DHT22;56378;52.404;20.816;2023-03-23T00:38:39;7.80;99.50
69261;DHT22;56378;52.404;20.816;2023-03-23T00:41:05;7.80;99.60
69261;DHT22;56378;52.404;20.816;2023-03-23T00:43:32;7.80;99.40
69261;DHT22;56378;52.404;20.816;2023-03-23T00:46:02;7.80;98.70
69261;DHT22;56378;52.404;20.816;2023-03-23T00:48:28;7.80;98.80
69261;DHT22;56378;52.404;20.816;2023-03-23T00:50:55;7.80;99.40
69261;DHT22;56378;52.404;20.816;2023-03-23T00:53:22;7.70;99.10
69261;DHT22;56378;52.404;20.816;2023-03-23T00:55:48;7.70;98.70
69261;DHT22;56378;52.404;20.816;2023-03-23T00:58:15;7.70;98.90
69261;DHT22;56378;52.404;20.816;2023-03-23T01:00:41;7.70;99.30
69261;DHT22;56378;52.404;20.816;2023-03-23T01:03:08;7.70;99.90
69261;DHT22;56378;52.404;20.816;2023-03-23T01:05:38;7.70;99.90
69261;DHT22;56378;52.404;20.816;2023-03-23T01:08:05;7.80;99.90
69261;DHT22;56378;52.404;20.816;2023-03-23T01:10:31;7.80;99.90
69261;DHT22;56378;52.404;20.816;2023-03-23T01:13:04;7.80;99.90
69261;DHT22;56378;52.404;20.816;2023-03-23T01:15:31;7.90;99.90
69261;DHT22;56378;52.404;20.816;2023-03-23T01:17:57;8.00;99.20
69261;DHT22;56378;52.404;20.816;2023-03-23T01:20:24;8.10;98.70
69261;DHT22;56378;52.404;20.816;2023-03-23T01:22:52;8.10;98.60
69261;DHT22;56378;52.404;20.816;2023-03-23T01:25:18;8.10;98.50
69261;DHT22;56378;52.404;20.816;2023-03-23T01:27:44;8.20;98.20
69261;DHT22;56378;52.404;20.816;2023-03-23T01:30:11;8.20;98.10
69261;DHT22;56378;52.404;20.816;2023-03-23T01:32:38;8.30;97.90
69261;DHT22;56378;52.404;20.816;2023-03-23T01:35:04;8.30;97.90
69261;DHT22;56378;52.404;20.816;2023-03-23T01:37:31;8.30;97.40
69261;DHT22;56378;52.404;20.816;2023-03-23T01:39:57;8.40;97.10
69261;DHT22;56378;52.404;20.816;2023-03-23T01:42:24;8.50;96.70
69261;DHT22;56378;52.404;20.816;2023-03-23T01:47:17;8.50;96.40
69261;DHT22;56378;52.404;20.816;2023-03-23T01:49:45;8.50;96.30
69261;DHT22;56378;52.404;20.816;2023-03-23T01:52:18;8.60;96.00
69261;DHT22;56378;52.404;20.816;2023-03-23T01:54:48;8.60;95.80
69261;DHT22;56378;52.404;20.816;2023-03-23T01:57:16;8.60;95.50
69261;DHT22;56378;52.404;20.816;2023-03-23T01:59:44;8.60;95.50
69261;DHT22;56378;52.404;20.816;2023-03-23T02:02:11;8.60;95.50
69261;DHT22;56378;52.404;20.816;2023-03-23T02:04:38;8.60;95.50
69261;DHT22;56378;52.404;20.816;2023-03-23T02:07:05;8.50;95.80
69261;DHT22;56378;52.404;20.816;2023-03-23T02:09:31;8.50;96.00
69261;DHT22;56378;52.404;20.816;2023-03-23T02:11:57;8.50;96.10
69261;DHT22;56378;52.404;20.816;2023-03-23T02:14:28;8.50;96.10
69261;DHT22;56378;52.404;20.816;2023-03-23T02:17:02;8.50;96.20
69261;DHT22;56378;52.404;20.816;2023-03-23T02:28:31;8.50;96.10
69261;DHT22;56378;52.404;20.816;2023-03-23T02:34:08;8.50;96.30
69261;DHT22;56378;52.404;20.816;2023-03-23T02:36:41;8.50;96.40
69261;DHT22;56378;52.404;20.816;2023-03-23T02:39:33;8.50;96.40
69261;DHT22;56378;52.404;20.816;2023-03-23T02:42:08;8.50;96.70
69261;DHT22;56378;52.404;20.816;2023-03-23T02:44:38;8.50;96.80
69261;DHT22;56378;52.404;20.816;2023-03-23T02:47:09;8.50;96.80
69261;DHT22;56378;52.404;20.816;2023-03-23T02:49:37;8.50;96.80
69261;DHT22;56378;52.404;20.816;2023-03-23T02:52:11;8.50;96.80
69261;DHT22;56378;52.404;20.816;2023-03-23T02:54:42;8.50;96.90
69261;DHT22;56378;52.404;20.816;2023-03-23T02:57:08;8.50;96.90
69261;DHT22;56378;52.404;20.816;2023-03-23T02:59:35;8.50;97.00
69261;DHT22;56378;52.404;20.816;2023-03-23T03:02:19;8.40;97.10
69261;DHT22;56378;52.404;20.816;2023-03-23T03:05:05;8.40;97.00
69261;DHT22;56378;52.404;20.816;2023-03-23T03:07:52;8.40;97.30
69261;DHT22;56378;52.404;20.816;2023-03-23T03:10:59;8.40;97.30
69261;DHT22;56378;52.404;20.816;2023-03-23T03:13:47;8.40;97.20
69261;DHT22;56378;52.404;20.816;2023-03-23T03:19:06;8.30;97.80
69261;DHT22;56378;52.404;20.816;2023-03-23T03:21:38;8.30;97.90
69261;DHT22;56378;52.404;20.816;2023-03-23T03:24:06;8.20;98.20
69261;DHT22;56378;52.404;20.816;2023-03-23T03:26:39;8.20;98.30
69261;DHT22;56378;52.404;20.816;2023-03-23T03:29:11;8.10;98.70
69261;DHT22;56378;52.404;20.816;2023-03-23T03:31:38;8.10;98.70
69261;DHT22;56378;52.404;20.816;2023-03-23T03:34:06;8.10;98.80
69261;DHT22;56378;52.404;20.816;2023-03-23T03:36:35;8.10;98.90
69261;DHT22;56378;52.404;20.816;2023-03-23T03:39:03;8.00;99.20
69261;DHT22;56378;52.404;20.816;2023-03-23T03:41:30;8.00;99.30
69261;DHT22;56378;52.404;20.816;2023-03-23T03:43:56;8.00;99.50
69261;DHT22;56378;52.404;20.816;2023-03-23T03:46:22;8.00;99.50
69261;DHT22;56378;52.404;20.816;2023-03-23T03:48:52;8.00;99.40
69261;DHT22;56378;52.404;20.816;2023-03-23T03:51:18;8.00;99.80
69261;DHT22;56378;52.404;20.816;2023-03-23T03:53:43;7.90;99.90
69261;DHT22;56378;52.404;20.816;2023-03-23T03:56:09;7.90;99.90
69261;DHT22;56378;52.404;20.816;2023-03-23T03:58:35;7.90;99.80
69261;DHT22;56378;52.404;20.816;2023-03-23T04:01:02;7.90;99.80
69261;DHT22;56378;52.404;20.816;2023-03-23T04:03:28;7.90;99.90
69261;DHT22;56378;52.404;20.816;2023-03-23T04:05:54;7.80;99.90
69261;DHT22;56378;52.404;20.816;2023-03-23T04:08:23;7.80;99.90
69261;DHT22;56378;52.404;20.816;2023-03-23T04:10:49;7.80;99.90
69261;DHT22;56378;52.404;20.816;2023-03-23T04:13:15;7.80;99.90
69261;DHT22;56378;52.404;20.816;2023-03-23T04:15:41;7.70;99.90
69261;DHT22;56378;52.404;20.816;2023-03-23T04:18:06;7.70;99.90
69261;DHT22;56378;52.404;20.816;2023-03-23T04:20:33;7.70;99.90
69261;DHT22;56378;52.404;20.816;2023-03-23T04:23:00;7.70;99.90
69261;DHT22;56378;52.404;20.816;2023-03-23T04:25:27;7.70;99.90
69261;DHT22;56378;52.404;20.816;2023-03-23T04:27:53;7.60;99.90
69261;DHT22;56378;52.404;20.816;2023-03-23T04:30:24;7.60;99.90
69261;DHT22;56378;52.404;20.816;2023-03-23T04:32:51;7.60;99.90
69261;DHT22;56378;52.404;20.816;2023-03-23T04:35:22;7.60;99.90
69261;DHT22;56378;52.404;20.816;2023-03-23T04:37:48;7.50;99.90
69261;DHT22;56378;52.404;20.816;2023-03-23T04:40:14;7.50;99.90
69261;DHT22;56378;52.404;20.816;2023-03-23T04:42:42;7.50;99.90
69261;DHT22;56378;52.404;20.816;2023-03-23T04:45:16;7.50;99.90
69261;DHT22;56378;52.404;20.816;2023-03-23T04:47:47;7.50;99.90
69261;DHT22;56378;52.404;20.816;2023-03-23T04:50:19;7.50;99.90
69261;DHT22;56378;52.404;20.816;2023-03-23T04:52:45;7.50;99.90
69261;DHT22;56378;52.404;20.816;2023-03-23T04:55:12;7.50;99.90
69261;DHT22;56378;52.404;20.816;2023-03-23T04:57:38;7.50;99.90
69261;DHT22;56378;52.404;20.816;2023-03-23T05:00:05;7.50;99.90
69261;DHT22;56378;52.404;20.816;2023-03-23T05:02:37;7.50;99.90
69261;DHT22;56378;52.404;20.816;2023-03-23T05:05:06;7.50;99.90
69261;DHT22;56378;52.404;20.816;2023-03-23T05:07:32;7.60;99.90
69261;DHT22;56378;52.404;20.816;2023-03-23T05:09:57;7.60;99.90
69261;DHT22;56378;52.404;20.816;2023-03-23T05:12:23;7.60;99.90
69261;DHT22;56378;52.404;20.816;2023-03-23T05:14:49;7.70;99.90
69261;DHT22;56378;52.404;20.816;2023-03-23T05:17:15;7.70;99.90
69261;DHT22;56378;52.404;20.816;2023-03-23T05:19:45;7.70;99.90
69261;DHT22;56378;52.404;20.816;2023-03-23T05:22:14;7.80;99.90
69261;DHT22;56378;52.404;20.816;2023-03-23T05:24:40;7.80;99.90
69261;DHT22;56378;52.404;20.816;2023-03-23T05:27:09;7.80;99.90
69261;DHT22;56378;52.404;20.816;2023-03-23T05:29:35;7.90;99.90
69261;DHT22;56378;52.404;20.816;2023-03-23T05:32:03;7.90;99.90
69261;DHT22;56378;52.404;20.816;2023-03-23T05:34:29;8.00;99.90
69261;DHT22;56378;52.404;20.816;2023-03-23T05:37:01;8.00;99.90
69261;DHT22;56378;52.404;20.816;2023-03-23T05:39:29;8.10;99.80
69261;DHT22;56378;52.404;20.816;2023-03-23T05:41:55;8.10;99.60
69261;DHT22;56378;52.404;20.816;2023-03-23T05:44:21;8.20;99.00
69261;DHT22;56378;52.404;20.816;2023-03-23T05:46:47;8.30;98.70
69261;DHT22;56378;52.404;20.816;2023-03-23T05:49:14;8.30;98.40
69261;DHT22;56378;52.404;20.816;2023-03-23T05:51:44;8.40;98.20
69261;DHT22;56378;52.404;20.816;2023-03-23T05:54:12;8.50;97.70
69261;DHT22;56378;52.404;20.816;2023-03-23T05:56:38;8.50;96.80
69261;DHT22;56378;52.404;20.816;2023-03-23T05:59:04;8.60;96.60
69261;DHT22;56378;52.404;20.816;2023-03-23T06:01:30;8.70;96.40
69261;DHT22;56378;52.404;20.816;2023-03-23T06:03:57;8.80;96.20
69261;DHT22;56378;52.404;20.816;2023-03-23T06:06:28;8.80;95.60
69261;DHT22;56378;52.404;20.816;2023-03-23T06:08:55;8.90;95.20
69261;DHT22;56378;52.404;20.816;2023-03-23T06:11:22;9.00;94.70
69261;DHT22;56378;52.404;20.816;2023-03-23T06:13:48;9.10;93.80
69261;DHT22;56378;52.404;20.816;2023-03-23T06:16:14;9.10;92.80
69261;DHT22;56378;52.404;20.816;2023-03-23T06:18:41;9.20;92.90
69261;DHT22;56378;52.404;20.816;2023-03-23T06:21:08;9.30;92.10
69261;DHT22;56378;52.404;20.816;2023-03-23T06:23:34;9.30;91.60
69261;DHT22;56378;52.404;20.816;2023-03-23T06:26:02;9.40;90.80
69261;DHT22;56378;52.404;20.816;2023-03-23T06:28:29;9.50;90.60
69261;DHT22;56378;52.404;20.816;2023-03-23T06:30:54;9.70;89.70
69261;DHT22;56378;52.404;20.816;2023-03-23T06:33:20;9.80;88.80
69261;DHT22;56378;52.404;20.816;2023-03-23T06:35:46;9.90;88.30
69261;DHT22;56378;52.404;20.816;2023-03-23T06:38:13;10.00;87.70
69261;DHT22;56378;52.404;20.816;2023-03-23T06:40:39;10.10;86.90
69261;DHT22;56378;52.404;20.816;2023-03-23T06:43:05;10.10;86.70
69261;DHT22;56378;52.404;20.816;2023-03-23T06:45:31;10.30;86.00
69261;DHT22;56378;52.404;20.816;2023-03-23T06:47:57;10.30;85.20
69261;DHT22;56378;52.404;20.816;2023-03-23T06:50:23;10.40;85.10
69261;DHT22;56378;52.404;20.816;2023-03-23T06:52:50;10.50;84.90
69261;DHT22;56378;52.404;20.816;2023-03-23T06:55:17;10.80;84.80
69261;DHT22;56378;52.404;20.816;2023-03-23T06:57:43;11.10;82.70
69261;DHT22;56378;52.404;20.816;2023-03-23T07:00:11;11.50;82.00
69261;DHT22;56378;52.404;20.816;2023-03-23T07:02:39;12.00;79.80
69261;DHT22;56378;52.404;20.816;2023-03-23T07:05:07;12.70;76.50
69261;DHT22;56378;52.404;20.816;2023-03-23T07:07:35;13.30;73.40
69261;DHT22;56378;52.404;20.816;2023-03-23T07:10:02;13.70;72.20
69261;DHT22;56378;52.404;20.816;2023-03-23T07:12:27;14.00;70.20
69261;DHT22;56378;52.404;20.816;2023-03-23T07:14:54;14.00;70.60
69261;DHT22;56378;52.404;20.816;2023-03-23T07:17:20;14.20;69.10
69261;DHT22;56378;52.404;20.816;2023-03-23T07:19:45;14.40;69.80
69261;DHT22;56378;52.404;20.816;2023-03-23T07:22:11;14.40;69.10
69261;DHT22;56378;52.404;20.816;2023-03-23T07:24:37;14.50;68.30
69261;DHT22;56378;52.404;20.816;2023-03-23T07:27:03;14.80;67.00
69261;DHT22;56378;52.404;20.816;2023-03-23T07:29:29;14.70;66.70
69261;DHT22;56378;52.404;20.816;2023-03-23T07:31:55;14.60;66.30
69261;DHT22;56378;52.404;20.816;2023-03-23T07:34:20;14.40;67.90
69261;DHT22;56378;52.404;20.816;2023-03-23T07:36:46;14.60;66.50
69261;DHT22;56378;52.404;20.816;2023-03-23T07:39:13;14.50;67.20
69261;DHT22;56378;52.404;20.816;2023-03-23T07:41:39;14.70;67.80
69261;DHT22;56378;52.404;20.816;2023-03-23T07:44:05;15.00;65.70
69261;DHT22;56378;52.404;20.816;2023-03-23T07:46:32;15.40;65.00
69261;DHT22;56378;52.404;20.816;2023-03-23T07:48:58;16.00;63.50
69261;DHT22;56378;52.404;20.816;2023-03-23T07:51:25;16.50;61.70
69261;DHT22;56378;52.404;20.816;2023-03-23T07:53:51;17.20;59.20
69261;DHT22;56378;52.404;20.816;2023-03-23T07:56:17;16.80;58.90
69261;DHT22;56378;52.404;20.816;2023-03-23T07:58:46;16.20;59.30
69261;DHT22;56378;52.404;20.816;2023-03-23T08:01:11;15.70;61.80
69261;DHT22;56378;52.404;20.816;2023-03-23T08:03:38;15.70;62.00
69261;DHT22;56378;52.404;20.816;2023-03-23T08:06:04;15.70;61.30
69261;DHT22;56378;52.404;20.816;2023-03-23T08:08:30;15.40;62.30
69261;DHT22;56378;52.404;20.816;2023-03-23T08:10:57;15.20;62.40
69261;DHT22;56378;52.404;20.816;2023-03-23T08:13:23;15.00;63.90
69261;DHT22;56378;52.404;20.816;2023-03-23T08:15:48;15.00;64.20
69261;DHT22;56378;52.404;20.816;2023-03-23T08:18:15;14.90;63.80
69261;DHT22;56378;52.404;20.816;2023-03-23T08:20:41;14.90;63.80
69261;DHT22;56378;52.404;20.816;2023-03-23T08:23:07;14.70;63.40
69261;DHT22;56378;52.404;20.816;2023-03-23T08:25:33;14.70;64.00
69261;DHT22;56378;52.404;20.816;2023-03-23T08:28:00;14.70;64.60
69261;DHT22;56378;52.404;20.816;2023-03-23T08:30:27;14.80;65.10
69261;DHT22;56378;52.404;20.816;2023-03-23T08:32:59;14.90;63.70
69261;DHT22;56378;52.404;20.816;2023-03-23T08:35:26;15.10;63.30
69261;DHT22;56378;52.404;20.816;2023-03-23T08:37:51;15.30;62.60
69261;DHT22;56378;52.404;20.816;2023-03-23T08:40:20;15.40;62.70
69261;DHT22;56378;52.404;20.816;2023-03-23T08:42:47;15.40;61.50
69261;DHT22;56378;52.404;20.816;2023-03-23T08:45:16;15.10;62.30
69261;DHT22;56378;52.404;20.816;2023-03-23T08:47:43;15.10;63.10
69261;DHT22;56378;52.404;20.816;2023-03-23T08:50:13;14.90;63.30
69261;DHT22;56378;52.404;20.816;2023-03-23T08:52:39;14.80;62.80
69261;DHT22;56378;52.404;20.816;2023-03-23T08:55:05;14.70;63.80
69261;DHT22;56378;52.404;20.816;2023-03-23T08:57:34;14.70;63.70
69261;DHT22;56378;52.404;20.816;2023-03-23T09:00:05;14.50;64.50
69261;DHT22;56378;52.404;20.816;2023-03-23T09:02:40;14.40;63.60
69261;DHT22;56378;52.404;20.816;2023-03-23T09:05:08;14.50;63.90
69261;DHT22;56378;52.404;20.816;2023-03-23T09:07:39;14.40;64.00
69261;DHT22;56378;52.404;20.816;2023-03-23T09:10:06;14.50;64.00
69261;DHT22;56378;52.404;20.816;2023-03-23T09:12:32;14.60;64.00
69261;DHT22;56378;52.404;20.816;2023-03-23T09:14:57;14.60;62.90
69261;DHT22;56378;52.404;20.816;2023-03-23T09:17:23;14.60;62.50
69261;DHT22;56378;52.404;20.816;2023-03-23T09:19:49;14.60;62.70
69261;DHT22;56378;52.404;20.816;2023-03-23T09:22:14;14.60;63.00
69261;DHT22;56378;52.404;20.816;2023-03-23T09:24:45;14.60;62.20
69261;DHT22;56378;52.404;20.816;2023-03-23T09:27:11;14.60;62.60
69261;DHT22;56378;52.404;20.816;2023-03-23T09:29:37;14.50;63.10
69261;DHT22;56378;52.404;20.816;2023-03-23T09:32:03;14.60;62.70
69261;DHT22;56378;52.404;20.816;2023-03-23T09:34:29;14.70;63.20
69261;DHT22;56378;52.404;20.816;2023-03-23T09:36:55;14.70;63.10
69261;DHT22;56378;52.404;20.816;2023-03-23T09:39:21;14.80;62.30
69261;DHT22;56378;52.404;20.816;2023-03-23T09:47:37;15.10;60.70
69261;DHT22;56378;52.404;20.816;2023-03-23T09:55:16;15.90;59.30
69261;DHT22;56378;52.404;20.816;2023-03-23T09:58:18;16.10;58.00
69261;DHT22;56378;52.404;20.816;2023-03-23T10:03:40;18.30;53.70
69261;DHT22;56378;52.404;20.816;2023-03-23T10:06:10;18.90;50.30
69261;DHT22;56378;52.404;20.816;2023-03-23T10:08:41;18.90;49.60
69261;DHT22;56378;52.404;20.816;2023-03-23T10:14:19;19.40;48.40
69261;DHT22;56378;52.404;20.816;2023-03-23T10:19:40;20.20;47.20
69261;DHT22;56378;52.404;20.816;2023-03-23T10:22:11;21.00;44.70
69261;DHT22;56378;52.404;20.816;2023-03-23T10:24:48;21.40;44.20
69261;DHT22;56378;52.404;20.816;2023-03-23T10:27:24;21.50;43.20
69261;DHT22;56378;52.404;20.816;2023-03-23T10:30:19;22.30;41.20
69261;DHT22;56378;52.404;20.816;2023-03-23T10:33:02;23.20;40.00
69261;DHT22;56378;52.404;20.816;2023-03-23T10:35:34;23.80;38.50
69261;DHT22;56378;52.404;20.816;2023-03-23T10:38:06;24.10;38.10
69261;DHT22;56378;52.404;20.816;2023-03-23T10:40:44;24.20;37.20
69261;DHT22;56378;52.404;20.816;2023-03-23T10:43:11;24.00;36.90
69261;DHT22;56378;52.404;20.816;2023-03-23T10:45:36;23.10;38.80
69261;DHT22;56378;52.404;20.816;2023-03-23T10:48:13;22.20;40.10
69261;DHT22;56378;52.404;20.816;2023-03-23T10:50:42;21.60;41.50
69261;DHT22;56378;52.404;20.816;2023-03-23T10:53:18;21.10;42.00
69261;DHT22;56378;52.404;20.816;2023-03-23T10:55:44;21.10;42.00
69261;DHT22;56378;52.404;20.816;2023-03-23T10:58:22;21.20;41.00
69261;DHT22;56378;52.404;20.816;2023-03-23T11:00:47;21.60;40.60
69261;DHT22;56378;52.404;20.816;2023-03-23T11:05:47;22.10;39.00
69261;DHT22;56378;52.404;20.816;2023-03-23T11:08:19;23.10;39.90
69261;DHT22;56378;52.404;20.816;2023-03-23T11:10:59;24.60;36.40
69261;DHT22;56378;52.404;20.816;2023-03-23T11:13:32;25.70;35.10
69261;DHT22;56378;52.404;20.816;2023-03-23T11:15:58;27.40;32.60
69261;DHT22;56378;52.404;20.816;2023-03-23T11:18:27;28.60;32.00
69261;DHT22;56378;52.404;20.816;2023-03-23T11:21:00;26.80;32.50
69261;DHT22;56378;52.404;20.816;2023-03-23T11:23:37;24.90;35.20
69261;DHT22;56378;52.404;20.816;2023-03-23T11:31:34;21.60;40.80
69261;DHT22;56378;52.404;20.816;2023-03-23T11:34:08;21.30;41.50
69261;DHT22;56378;52.404;20.816;2023-03-23T11:36:38;21.50;41.40
69261;DHT22;56378;52.404;20.816;2023-03-23T11:39:32;22.50;40.40
69261;DHT22;56378;52.404;20.816;2023-03-23T11:42:21;24.90;36.40
69261;DHT22;56378;52.404;20.816;2023-03-23T11:44:47;28.20;32.40
69261;DHT22;56378;52.404;20.816;2023-03-23T11:47:20;28.60;30.70
69261;DHT22;56378;52.404;20.816;2023-03-23T11:50:00;27.50;31.80
69261;DHT22;56378;52.404;20.816;2023-03-23T11:55:18;28.50;31.00
69261;DHT22;56378;52.404;20.816;2023-03-23T11:57:44;27.40;31.50
69261;DHT22;56378;52.404;20.816;2023-03-23T12:00:20;26.80;32.30
69261;DHT22;56378;52.404;20.816;2023-03-23T12:02:59;26.50;32.80
69261;DHT22;56378;52.404;20.816;2023-03-23T12:14:44;33.80;25.20
69261;DHT22;56378;52.404;20.816;2023-03-23T12:28:23;35.20;24.80
69261;DHT22;56378;52.404;20.816;2023-03-23T12:31:07;33.40;26.10
69261;DHT22;56378;52.404;20.816;2023-03-23T12:36:28;29.10;29.90
69261;DHT22;56378;52.404;20.816;2023-03-23T12:42:32;25.80;33.60
69261;DHT22;56378;52.404;20.816;2023-03-23T12:45:07;24.20;35.60
69261;DHT22;56378;52.404;20.816;2023-03-23T12:47:46;23.00;37.10
69261;DHT22;56378;52.404;20.816;2023-03-23T12:53:13;21.70;39.50
69261;DHT22;56378;52.404;20.816;2023-03-23T12:58:23;21.00;40.50
69261;DHT22;56378;52.404;20.816;2023-03-23T13:11:42;20.00;42.70
69261;DHT22;56378;52.404;20.816;2023-03-23T13:23:20;19.40;42.30
69261;DHT22;56378;52.404;20.816;2023-03-23T13:25:53;19.20;42.80
69261;DHT22;56378;52.404;20.816;2023-03-23T13:28:25;19.10;44.00
69261;DHT22;56378;52.404;20.816;2023-03-23T13:31:16;19.00;43.90
69261;DHT22;56378;52.404;20.816;2023-03-23T13:33:49;19.00;44.50
69261;DHT22;56378;52.404;20.816;2023-03-23T13:36:26;18.90;44.60
69261;DHT22;56378;52.404;20.816;2023-03-23T13:38:52;18.90;44.50
69261;DHT22;56378;52.404;20.816;2023-03-23T13:41:19;18.90;45.40
69261;DHT22;56378;52.404;20.816;2023-03-23T13:43:47;18.90;45.20
69261;DHT22;56378;52.404;20.816;2023-03-23T13:48:46;18.80;45.40
69261;DHT22;56378;52.404;20.816;2023-03-23T13:57:01;18.60;46.50
69261;DHT22;56378;52.404;20.816;2023-03-23T13:59:45;18.40;46.50
69261;DHT22;56378;52.404;20.816;2023-03-23T14:02:40;18.30;46.90
69261;DHT22;56378;52.404;20.816;2023-03-23T14:05:31;18.30;47.40
69261;DHT22;56378;52.404;20.816;2023-03-23T14:10:52;18.10;47.90
69261;DHT22;56378;52.404;20.816;2023-03-23T14:16:04;17.90;47.50
69261;DHT22;56378;52.404;20.816;2023-03-23T14:18:38;17.80;48.10
69261;DHT22;56378;52.404;20.816;2023-03-23T14:21:05;17.70;48.40
69261;DHT22;56378;52.404;20.816;2023-03-23T14:23:33;17.60;49.10
69261;DHT22;56378;52.404;20.816;2023-03-23T14:26:08;17.50;49.50
69261;DHT22;56378;52.404;20.816;2023-03-23T14:28:40;17.40;50.40
69261;DHT22;56378;52.404;20.816;2023-03-23T14:33:41;17.20;50.90
69261;DHT22;56378;52.404;20.816;2023-03-23T14:36:07;17.10;51.50
69261;DHT22;56378;52.404;20.816;2023-03-23T14:38:33;17.10;51.90
69261;DHT22;56378;52.404;20.816;2023-03-23T14:41:03;17.10;52.00
69261;DHT22;56378;52.404;20.816;2023-03-23T14:43:31;17.00;51.70
69261;DHT22;56378;52.404;20.816;2023-03-23T14:46:02;16.90;51.70
69261;DHT22;56378;52.404;20.816;2023-03-23T14:48:30;16.90;51.90
69261;DHT22;56378;52.404;20.816;2023-03-23T14:50:58;16.80;52.10
69261;DHT22;56378;52.404;20.816;2023-03-23T14:53:25;16.80;52.20
69261;DHT22;56378;52.404;20.816;2023-03-23T14:55:53;16.70;52.20
69261;DHT22;56378;52.404;20.816;2023-03-23T14:58:21;16.70;52.30
69261;DHT22;56378;52.404;20.816;2023-03-23T15:01:00;16.70;52.80
69261;DHT22;56378;52.404;20.816;2023-03-23T15:03:34;16.60;52.70
69261;DHT22;56378;52.404;20.816;2023-03-23T15:06:04;16.50;52.50
69261;DHT22;56378;52.404;20.816;2023-03-23T15:08:33;16.50;52.60
69261;DHT22;56378;52.404;20.816;2023-03-23T15:13:49;16.40;53.20
69261;DHT22;56378;52.404;20.816;2023-03-23T15:16:22;16.40;53.40
69261;DHT22;56378;52.404;20.816;2023-03-23T15:19:00;16.30;53.70
69261;DHT22;56378;52.404;20.816;2023-03-23T15:21:30;16.30;53.70
69261;DHT22;56378;52.404;20.816;2023-03-23T15:23:57;16.20;53.70
69261;DHT22;56378;52.404;20.816;2023-03-23T15:26:26;16.20;53.90
69261;DHT22;56378;52.404;20.816;2023-03-23T15:29:02;16.20;54.20
69261;DHT22;56378;52.404;20.816;2023-03-23T15:31:29;16.10;54.80
69261;DHT22;56378;52.404;20.816;2023-03-23T15:34:02;16.10;55.10
69261;DHT22;56378;52.404;20.816;2023-03-23T15:36:33;16.00;55.60
69261;DHT22;56378;52.404;20.816;2023-03-23T15:39:00;15.90;55.70
69261;DHT22;56378;52.404;20.816;2023-03-23T15:41:30;15.90;55.70
69261;DHT22;56378;52.404;20.816;2023-03-23T15:44:10;15.80;56.30
69261;DHT22;56378;52.404;20.816;2023-03-23T15:46:50;15.80;56.50
69261;DHT22;56378;52.404;20.816;2023-03-23T15:49:17;15.70;56.60
69261;DHT22;56378;52.404;20.816;2023-03-23T15:51:42;15.70;56.60
69261;DHT22;56378;52.404;20.816;2023-03-23T15:54:17;15.70;56.50
69261;DHT22;56378;52.404;20.816;2023-03-23T15:56:43;15.60;56.80
69261;DHT22;56378;52.404;20.816;2023-03-23T15:59:10;15.60;57.00
69261;DHT22;56378;52.404;20.816;2023-03-23T16:01:38;15.50;57.30
69261;DHT22;56378;52.404;20.816;2023-03-23T16:06:33;15.40;58.30
69261;DHT22;56378;52.404;20.816;2023-03-23T16:09:00;15.40;58.70
69261;DHT22;56378;52.404;20.816;2023-03-23T16:11:27;15.40;59.80
69261;DHT22;56378;52.404;20.816;2023-03-23T16:13:53;15.30;60.30
69261;DHT22;56378;52.404;20.816;2023-03-23T16:16:24;15.30;61.00
69261;DHT22;56378;52.404;20.816;2023-03-23T16:18:51;15.20;62.20
69261;DHT22;56378;52.404;20.816;2023-03-23T16:21:17;15.20;62.90
69261;DHT22;56378;52.404;20.816;2023-03-23T16:23:42;15.10;63.30
69261;DHT22;56378;52.404;20.816;2023-03-23T16:26:11;15.00;64.00
69261;DHT22;56378;52.404;20.816;2023-03-23T16:28:37;14.90;64.50
69261;DHT22;56378;52.404;20.816;2023-03-23T16:31:03;14.90;65.30
69261;DHT22;56378;52.404;20.816;2023-03-23T16:33:29;14.80;65.80
69261;DHT22;56378;52.404;20.816;2023-03-23T16:35:55;14.70;66.00
69261;DHT22;56378;52.404;20.816;2023-03-23T16:38:23;14.60;66.40
69261;DHT22;56378;52.404;20.816;2023-03-23T16:40:49;14.50;66.50
69261;DHT22;56378;52.404;20.816;2023-03-23T16:43:15;14.50;66.50
69261;DHT22;56378;52.404;20.816;2023-03-23T16:45:42;14.40;67.00
69261;DHT22;56378;52.404;20.816;2023-03-23T16:48:08;14.40;67.10
69261;DHT22;56378;52.404;20.816;2023-03-23T16:50:35;14.40;67.50
69261;DHT22;56378;52.404;20.816;2023-03-23T16:53:01;14.30;67.30
69261;DHT22;56378;52.404;20.816;2023-03-23T16:55:28;14.30;67.80
69261;DHT22;56378;52.404;20.816;2023-03-23T16:57:54;14.20;68.30
69261;DHT22;56378;52.404;20.816;2023-03-23T17:00:20;14.20;69.40
69261;DHT22;56378;52.404;20.816;2023-03-23T17:02:49;14.20;69.10
69261;DHT22;56378;52.404;20.816;2023-03-23T17:05:18;14.10;69.60
69261;DHT22;56378;52.404;20.816;2023-03-23T17:07:44;14.10;69.70
69261;DHT22;56378;52.404;20.816;2023-03-23T17:10:12;14.00;69.80
69261;DHT22;56378;52.404;20.816;2023-03-23T17:12:38;14.00;70.20
69261;DHT22;56378;52.404;20.816;2023-03-23T17:15:05;13.90;70.90
69261;DHT22;56378;52.404;20.816;2023-03-23T17:17:31;13.90;71.20
69261;DHT22;56378;52.404;20.816;2023-03-23T17:19:57;13.80;72.00
69261;DHT22;56378;52.404;20.816;2023-03-23T17:22:24;13.80;73.00
69261;DHT22;56378;52.404;20.816;2023-03-23T17:24:50;13.70;73.80
69261;DHT22;56378;52.404;20.816;2023-03-23T17:27:18;13.70;74.10
69261;DHT22;56378;52.404;20.816;2023-03-23T17:29:44;13.60;74.20
69261;DHT22;56378;52.404;20.816;2023-03-23T17:32:11;13.60;74.90
69261;DHT22;56378;52.404;20.816;2023-03-23T17:34:37;13.50;76.20
69261;DHT22;56378;52.404;20.816;2023-03-23T17:37:03;13.40;76.30